sensor_id;sensor_type;location;lat;lon;timestamp;P1;durP1;ratioP1;P2;durP2;ratioP2
72882;SDS011;61017;37.812;-122.286;2023-07-08T00:00:53;17.00;;;3.28;;
72882;SDS011;61017;37.812;-122.286;2023-07-08T00:02:25;15.07;;;3.50;;
72882;SDS011;61017;37.812;-122.286;2023-07-08T00:03:56;16.60;;;3.08;;
72882;SDS011;61017;37.812;-122.286;2023-07-08T00:05:28;13.55;;;2.90;;
72882;SDS011;61017;37.812;-122.286;2023-07-08T00:06:59;13.95;;;2.75;;
72882;SDS011;61017;37.812;-122.286;2023-07-08T00:08:31;18.70;;;3.00;;
72882;SDS011;61017;37.812;-122.286;2023-07-08T00:11:45;18.25;;;3.38;;
72882;SDS011;61017;37.812;-122.286;2023-07-08T00:13:17;16.60;;;2.85;;
72882;SDS011;61017;37.812;-122.286;2023-07-08T00:14:48;28.42;;;3.40;;
72882;SDS011;61017;37.812;-122.286;2023-07-08T00:16:20;29.00;;;3.70;;
72882;SDS011;61017;37.812;-122.286;2023-07-08T00:17:51;16.75;;;3.10;;
72882;SDS011;61017;37.812;-122.286;2023-07-08T00:19:23;19.10;;;3.10;;
72882;SDS011;61017;37.812;-122.286;2023-07-08T00:20:55;34.30;;;3.22;;
72882;SDS011;61017;37.812;-122.286;2023-07-08T00:22:26;37.22;;;3.80;;
72882;SDS011;61017;37.812;-122.286;2023-07-08T00:23:59;26.02;;;3.30;;
72882;SDS011;61017;37.812;-122.286;2023-07-08T00:25:31;26.55;;;3.40;;
72882;SDS011;61017;37.812;-122.286;2023-07-08T00:27:04;19.85;;;3.40;;
72882;SDS011;61017;37.812;-122.286;2023-07-08T00:28:38;20.05;;;3.42;;
72882;SDS011;61017;37.812;-122.286;2023-07-08T00:30:23;28.63;;;4.40;;
72882;SDS011;61017;37.812;-122.286;2023-07-08T00:32:00;18.92;;;3.30;;
72882;SDS011;61017;37.812;-122.286;2023-07-08T00:33:31;23.52;;;3.50;;
72882;SDS011;61017;37.812;-122.286;2023-07-08T00:35:03;31.48;;;3.60;;
72882;SDS011;61017;37.812;-122.286;2023-07-08T00:36:35;30.55;;;3.70;;
72882;SDS011;61017;37.812;-122.286;2023-07-08T00:39:41;31.23;;;3.80;;
72882;SDS011;61017;37.812;-122.286;2023-07-08T00:41:30;26.73;;;3.67;;
72882;SDS011;61017;37.812;-122.286;2023-07-08T00:43:08;32.42;;;3.88;;
72882;SDS011;61017;37.812;-122.286;2023-07-08T00:44:40;41.85;;;4.25;;
72882;SDS011;61017;37.812;-122.286;2023-07-08T00:48:05;144.30;;;7.30;;
72882;SDS011;61017;37.812;-122.286;2023-07-08T00:50:05;87.63;;;6.28;;
72882;SDS011;61017;37.812;-122.286;2023-07-08T00:51:39;130.68;;;7.57;;
72882;SDS011;61017;37.812;-122.286;2023-07-08T00:53:27;172.40;;;11.10;;
72882;SDS011;61017;37.812;-122.286;2023-07-08T00:55:08;105.15;;;7.20;;
72882;SDS011;61017;37.812;-122.286;2023-07-08T00:56:46;84.68;;;6.13;;
72882;SDS011;61017;37.812;-122.286;2023-07-08T00:58:29;66.28;;;5.38;;
72882;SDS011;61017;37.812;-122.286;2023-07-08T01:00:09;54.85;;;4.97;;
72882;SDS011;61017;37.812;-122.286;2023-07-08T01:01:44;41.75;;;4.22;;
72882;SDS011;61017;37.812;-122.286;2023-07-08T01:03:16;35.92;;;4.13;;
72882;SDS011;61017;37.812;-122.286;2023-07-08T01:05:01;40.95;;;3.65;;
72882;SDS011;61017;37.812;-122.286;2023-07-08T01:06:36;30.77;;;4.63;;
72882;SDS011;61017;37.812;-122.286;2023-07-08T01:08:12;23.35;;;3.75;;
72882;SDS011;61017;37.812;-122.286;2023-07-08T01:09:44;29.48;;;3.38;;
72882;SDS011;61017;37.812;-122.286;2023-07-08T01:11:18;28.80;;;3.72;;
72882;SDS011;61017;37.812;-122.286;2023-07-08T01:12:51;20.40;;;3.65;;
72882;SDS011;61017;37.812;-122.286;2023-07-08T01:14:27;18.77;;;3.33;;
72882;SDS011;61017;37.812;-122.286;2023-07-08T01:16:01;27.08;;;3.78;;
72882;SDS011;61017;37.812;-122.286;2023-07-08T01:17:34;21.98;;;3.45;;
72882;SDS011;61017;37.812;-122.286;2023-07-08T01:19:06;22.83;;;3.75;;
72882;SDS011;61017;37.812;-122.286;2023-07-08T01:20:45;23.45;;;3.75;;
72882;SDS011;61017;37.812;-122.286;2023-07-08T01:22:16;23.40;;;3.90;;
72882;SDS011;61017;37.812;-122.286;2023-07-08T01:23:48;16.58;;;3.47;;
72882;SDS011;61017;37.812;-122.286;2023-07-08T01:25:20;22.05;;;3.92;;
72882;SDS011;61017;37.812;-122.286;2023-07-08T01:26:52;16.50;;;3.45;;
72882;SDS011;61017;37.812;-122.286;2023-07-08T01:28:24;16.67;;;3.97;;
72882;SDS011;61017;37.812;-122.286;2023-07-08T01:29:55;24.85;;;3.38;;
72882;SDS011;61017;37.812;-122.286;2023-07-08T01:31:27;26.77;;;3.78;;
72882;SDS011;61017;37.812;-122.286;2023-07-08T01:33:01;24.77;;;3.70;;
72882;SDS011;61017;37.812;-122.286;2023-07-08T01:34:35;24.60;;;3.70;;
72882;SDS011;61017;37.812;-122.286;2023-07-08T01:36:09;19.92;;;3.97;;
72882;SDS011;61017;37.812;-122.286;2023-07-08T01:37:49;18.98;;;3.53;;
72882;SDS011;61017;37.812;-122.286;2023-07-08T01:39:25;21.45;;;3.65;;
72882;SDS011;61017;37.812;-122.286;2023-07-08T01:40:59;21.33;;;3.92;;
72882;SDS011;61017;37.812;-122.286;2023-07-08T01:42:30;17.55;;;3.35;;
72882;SDS011;61017;37.812;-122.286;2023-07-08T01:44:02;16.02;;;3.72;;
72882;SDS011;61017;37.812;-122.286;2023-07-08T01:45:38;18.38;;;3.63;;
72882;SDS011;61017;37.812;-122.286;2023-07-08T01:47:13;16.10;;;3.53;;
72882;SDS011;61017;37.812;-122.286;2023-07-08T01:48:53;18.25;;;3.47;;
72882;SDS011;61017;37.812;-122.286;2023-07-08T01:50:28;17.17;;;3.35;;
72882;SDS011;61017;37.812;-122.286;2023-07-08T01:52:01;25.50;;;3.85;;
72882;SDS011;61017;37.812;-122.286;2023-07-08T01:53:38;21.73;;;4.00;;
72882;SDS011;61017;37.812;-122.286;2023-07-08T01:55:12;15.68;;;3.83;;
72882;SDS011;61017;37.812;-122.286;2023-07-08T01:56:46;16.05;;;3.53;;
72882;SDS011;61017;37.812;-122.286;2023-07-08T01:58:18;21.48;;;4.00;;
72882;SDS011;61017;37.812;-122.286;2023-07-08T01:59:50;67.30;;;5.43;;
72882;SDS011;61017;37.812;-122.286;2023-07-08T02:01:21;41.90;;;5.25;;
72882;SDS011;61017;37.812;-122.286;2023-07-08T02:02:53;37.15;;;4.50;;
72882;SDS011;61017;37.812;-122.286;2023-07-08T02:04:25;33.67;;;4.63;;
72882;SDS011;61017;37.812;-122.286;2023-07-08T02:05:57;32.53;;;4.03;;
72882;SDS011;61017;37.812;-122.286;2023-07-08T02:07:28;30.90;;;4.18;;
72882;SDS011;61017;37.812;-122.286;2023-07-08T02:09:00;35.05;;;4.15;;
72882;SDS011;61017;37.812;-122.286;2023-07-08T02:10:31;29.83;;;3.75;;
72882;SDS011;61017;37.812;-122.286;2023-07-08T02:12:03;47.97;;;4.30;;
72882;SDS011;61017;37.812;-122.286;2023-07-08T02:13:35;37.47;;;3.95;;
72882;SDS011;61017;37.812;-122.286;2023-07-08T02:15:07;37.63;;;5.05;;
72882;SDS011;61017;37.812;-122.286;2023-07-08T02:18:11;50.10;;;4.82;;
72882;SDS011;61017;37.812;-122.286;2023-07-08T02:19:43;34.58;;;4.40;;
72882;SDS011;61017;37.812;-122.286;2023-07-08T02:21:14;191.50;;;9.63;;
72882;SDS011;61017;37.812;-122.286;2023-07-08T02:22:46;162.90;;;8.82;;
72882;SDS011;61017;37.812;-122.286;2023-07-08T02:24:18;105.38;;;6.88;;
72882;SDS011;61017;37.812;-122.286;2023-07-08T02:25:50;93.10;;;6.53;;
72882;SDS011;61017;37.812;-122.286;2023-07-08T02:27:23;101.45;;;6.95;;
72882;SDS011;61017;37.812;-122.286;2023-07-08T02:28:54;56.13;;;5.80;;
72882;SDS011;61017;37.812;-122.286;2023-07-08T02:30:26;56.45;;;5.07;;
72882;SDS011;61017;37.812;-122.286;2023-07-08T02:31:58;64.70;;;6.13;;
72882;SDS011;61017;37.812;-122.286;2023-07-08T02:33:30;62.53;;;5.35;;
72882;SDS011;61017;37.812;-122.286;2023-07-08T02:35:01;59.88;;;5.57;;
72882;SDS011;61017;37.812;-122.286;2023-07-08T02:36:33;45.73;;;4.60;;
72882;SDS011;61017;37.812;-122.286;2023-07-08T02:38:05;50.80;;;5.45;;
72882;SDS011;61017;37.812;-122.286;2023-07-08T02:39:36;38.35;;;5.10;;
72882;SDS011;61017;37.812;-122.286;2023-07-08T02:41:08;81.00;;;5.90;;
72882;SDS011;61017;37.812;-122.286;2023-07-08T02:42:39;70.13;;;5.97;;
72882;SDS011;61017;37.812;-122.286;2023-07-08T02:44:11;39.47;;;4.85;;
72882;SDS011;61017;37.812;-122.286;2023-07-08T02:45:43;122.75;;;8.32;;
72882;SDS011;61017;37.812;-122.286;2023-07-08T02:47:14;92.13;;;6.72;;
72882;SDS011;61017;37.812;-122.286;2023-07-08T02:48:46;62.95;;;6.05;;
72882;SDS011;61017;37.812;-122.286;2023-07-08T02:50:18;57.95;;;5.70;;
72882;SDS011;61017;37.812;-122.286;2023-07-08T02:51:49;62.33;;;5.55;;
72882;SDS011;61017;37.812;-122.286;2023-07-08T02:53:21;63.90;;;4.95;;
72882;SDS011;61017;37.812;-122.286;2023-07-08T02:54:52;49.08;;;4.75;;
72882;SDS011;61017;37.812;-122.286;2023-07-08T02:56:24;44.50;;;5.20;;
72882;SDS011;61017;37.812;-122.286;2023-07-08T02:57:56;36.47;;;4.40;;
72882;SDS011;61017;37.812;-122.286;2023-07-08T02:59:27;32.63;;;4.65;;
72882;SDS011;61017;37.812;-122.286;2023-07-08T03:00:59;24.85;;;3.83;;
72882;SDS011;61017;37.812;-122.286;2023-07-08T03:02:31;23.00;;;4.38;;
72882;SDS011;61017;37.812;-122.286;2023-07-08T03:04:02;25.58;;;4.40;;
72882;SDS011;61017;37.812;-122.286;2023-07-08T03:05:34;19.23;;;4.00;;
72882;SDS011;61017;37.812;-122.286;2023-07-08T03:07:06;21.40;;;4.38;;
72882;SDS011;61017;37.812;-122.286;2023-07-08T03:08:38;26.05;;;4.47;;
72882;SDS011;61017;37.812;-122.286;2023-07-08T03:10:10;130.20;;;8.75;;
72882;SDS011;61017;37.812;-122.286;2023-07-08T03:11:41;127.55;;;7.82;;
72882;SDS011;61017;37.812;-122.286;2023-07-08T03:13:13;68.67;;;6.20;;
72882;SDS011;61017;37.812;-122.286;2023-07-08T03:14:45;82.03;;;7.07;;
72882;SDS011;61017;37.812;-122.286;2023-07-08T03:16:16;61.50;;;6.55;;
72882;SDS011;61017;37.812;-122.286;2023-07-08T03:17:48;67.32;;;6.57;;
72882;SDS011;61017;37.812;-122.286;2023-07-08T03:19:19;50.97;;;5.70;;
72882;SDS011;61017;37.812;-122.286;2023-07-08T03:20:51;41.00;;;5.50;;
72882;SDS011;61017;37.812;-122.286;2023-07-08T03:22:23;38.30;;;4.68;;
72882;SDS011;61017;37.812;-122.286;2023-07-08T03:23:55;39.50;;;5.60;;
72882;SDS011;61017;37.812;-122.286;2023-07-08T03:25:27;51.47;;;5.97;;
72882;SDS011;61017;37.812;-122.286;2023-07-08T03:26:58;48.70;;;5.20;;
72882;SDS011;61017;37.812;-122.286;2023-07-08T03:28:30;44.63;;;5.57;;
72882;SDS011;61017;37.812;-122.286;2023-07-08T03:30:01;37.60;;;5.53;;
72882;SDS011;61017;37.812;-122.286;2023-07-08T03:31:33;23.77;;;4.60;;
72882;SDS011;61017;37.812;-122.286;2023-07-08T03:33:04;52.25;;;6.40;;
72882;SDS011;61017;37.812;-122.286;2023-07-08T03:34:36;31.08;;;5.32;;
72882;SDS011;61017;37.812;-122.286;2023-07-08T03:36:09;29.45;;;4.57;;
72882;SDS011;61017;37.812;-122.286;2023-07-08T03:37:44;37.13;;;5.30;;
72882;SDS011;61017;37.812;-122.286;2023-07-08T03:39:20;41.70;;;6.03;;
72882;SDS011;61017;37.812;-122.286;2023-07-08T03:40:53;46.85;;;6.15;;
72882;SDS011;61017;37.812;-122.286;2023-07-08T03:42:24;39.33;;;6.20;;
72882;SDS011;61017;37.812;-122.286;2023-07-08T03:43:56;47.88;;;6.10;;
72882;SDS011;61017;37.812;-122.286;2023-07-08T03:45:27;36.47;;;5.70;;
72882;SDS011;61017;37.812;-122.286;2023-07-08T03:46:59;42.10;;;5.68;;
72882;SDS011;61017;37.812;-122.286;2023-07-08T03:50:03;35.97;;;5.38;;
72882;SDS011;61017;37.812;-122.286;2023-07-08T03:51:36;37.65;;;5.35;;
72882;SDS011;61017;37.812;-122.286;2023-07-08T03:53:09;25.95;;;4.70;;
72882;SDS011;61017;37.812;-122.286;2023-07-08T03:54:41;26.10;;;4.63;;
72882;SDS011;61017;37.812;-122.286;2023-07-08T03:56:12;24.15;;;4.68;;
72882;SDS011;61017;37.812;-122.286;2023-07-08T03:57:44;20.23;;;4.50;;
72882;SDS011;61017;37.812;-122.286;2023-07-08T03:59:16;19.13;;;3.90;;
72882;SDS011;61017;37.812;-122.286;2023-07-08T04:00:48;19.75;;;4.07;;
72882;SDS011;61017;37.812;-122.286;2023-07-08T04:02:20;20.50;;;4.20;;
72882;SDS011;61017;37.812;-122.286;2023-07-08T04:03:52;19.77;;;4.03;;
72882;SDS011;61017;37.812;-122.286;2023-07-08T04:05:25;23.80;;;4.40;;
72882;SDS011;61017;37.812;-122.286;2023-07-08T04:06:57;19.10;;;3.83;;
72882;SDS011;61017;37.812;-122.286;2023-07-08T04:08:28;18.08;;;4.18;;
72882;SDS011;61017;37.812;-122.286;2023-07-08T04:10:00;19.50;;;4.10;;
72882;SDS011;61017;37.812;-122.286;2023-07-08T04:11:31;14.57;;;3.72;;
72882;SDS011;61017;37.812;-122.286;2023-07-08T04:13:03;18.23;;;3.92;;
72882;SDS011;61017;37.812;-122.286;2023-07-08T04:14:35;15.00;;;3.75;;
72882;SDS011;61017;37.812;-122.286;2023-07-08T04:16:07;13.70;;;3.70;;
72882;SDS011;61017;37.812;-122.286;2023-07-08T04:17:54;12.00;;;3.35;;
72882;SDS011;61017;37.812;-122.286;2023-07-08T04:19:25;18.20;;;3.95;;
72882;SDS011;61017;37.812;-122.286;2023-07-08T04:20:57;15.85;;;3.65;;
72882;SDS011;61017;37.812;-122.286;2023-07-08T04:22:29;14.03;;;3.83;;
72882;SDS011;61017;37.812;-122.286;2023-07-08T04:24:01;14.63;;;3.40;;
72882;SDS011;61017;37.812;-122.286;2023-07-08T04:25:32;13.38;;;3.58;;
72882;SDS011;61017;37.812;-122.286;2023-07-08T04:27:04;14.23;;;3.00;;
72882;SDS011;61017;37.812;-122.286;2023-07-08T04:28:36;10.43;;;3.00;;
72882;SDS011;61017;37.812;-122.286;2023-07-08T04:30:10;11.43;;;3.30;;
72882;SDS011;61017;37.812;-122.286;2023-07-08T04:31:52;12.38;;;3.15;;
72882;SDS011;61017;37.812;-122.286;2023-07-08T04:33:24;13.43;;;3.28;;
72882;SDS011;61017;37.812;-122.286;2023-07-08T04:34:55;14.93;;;3.03;;
72882;SDS011;61017;37.812;-122.286;2023-07-08T04:36:27;12.80;;;3.05;;
72882;SDS011;61017;37.812;-122.286;2023-07-08T04:37:59;10.70;;;3.20;;
72882;SDS011;61017;37.812;-122.286;2023-07-08T04:39:31;9.88;;;3.22;;
72882;SDS011;61017;37.812;-122.286;2023-07-08T04:41:03;13.20;;;3.45;;
72882;SDS011;61017;37.812;-122.286;2023-07-08T04:42:34;9.10;;;3.10;;
72882;SDS011;61017;37.812;-122.286;2023-07-08T04:44:07;10.07;;;3.00;;
72882;SDS011;61017;37.812;-122.286;2023-07-08T04:45:42;7.72;;;2.45;;
72882;SDS011;61017;37.812;-122.286;2023-07-08T04:47:16;11.10;;;3.42;;
72882;SDS011;61017;37.812;-122.286;2023-07-08T04:48:47;10.60;;;3.25;;
72882;SDS011;61017;37.812;-122.286;2023-07-08T04:50:19;9.75;;;2.70;;
72882;SDS011;61017;37.812;-122.286;2023-07-08T04:51:51;9.93;;;3.17;;
72882;SDS011;61017;37.812;-122.286;2023-07-08T04:53:22;10.23;;;2.95;;
72882;SDS011;61017;37.812;-122.286;2023-07-08T04:54:54;10.25;;;2.63;;
72882;SDS011;61017;37.812;-122.286;2023-07-08T04:56:26;12.55;;;3.03;;
72882;SDS011;61017;37.812;-122.286;2023-07-08T04:58:07;8.18;;;3.10;;
72882;SDS011;61017;37.812;-122.286;2023-07-08T04:59:38;11.02;;;3.20;;
72882;SDS011;61017;37.812;-122.286;2023-07-08T05:01:10;9.25;;;3.20;;
72882;SDS011;61017;37.812;-122.286;2023-07-08T05:02:42;9.68;;;3.15;;
72882;SDS011;61017;37.812;-122.286;2023-07-08T05:04:15;9.88;;;2.92;;
72882;SDS011;61017;37.812;-122.286;2023-07-08T05:05:48;10.13;;;3.15;;
72882;SDS011;61017;37.812;-122.286;2023-07-08T05:07:19;9.23;;;2.95;;
72882;SDS011;61017;37.812;-122.286;2023-07-08T05:08:51;10.43;;;2.88;;
72882;SDS011;61017;37.812;-122.286;2023-07-08T05:10:23;7.75;;;2.60;;
72882;SDS011;61017;37.812;-122.286;2023-07-08T05:11:55;9.98;;;2.90;;
72882;SDS011;61017;37.812;-122.286;2023-07-08T05:13:26;7.65;;;3.03;;
72882;SDS011;61017;37.812;-122.286;2023-07-08T05:14:58;8.35;;;2.70;;
72882;SDS011;61017;37.812;-122.286;2023-07-08T05:16:32;13.15;;;2.90;;
72882;SDS011;61017;37.812;-122.286;2023-07-08T05:18:06;9.23;;;2.80;;
72882;SDS011;61017;37.812;-122.286;2023-07-08T05:19:37;7.72;;;2.60;;
72882;SDS011;61017;37.812;-122.286;2023-07-08T05:21:09;9.27;;;2.70;;
72882;SDS011;61017;37.812;-122.286;2023-07-08T05:22:41;9.53;;;3.23;;
72882;SDS011;61017;37.812;-122.286;2023-07-08T05:24:13;6.80;;;2.45;;
72882;SDS011;61017;37.812;-122.286;2023-07-08T05:25:44;10.93;;;3.10;;
72882;SDS011;61017;37.812;-122.286;2023-07-08T05:27:16;9.50;;;2.88;;
72882;SDS011;61017;37.812;-122.286;2023-07-08T05:28:47;9.70;;;3.13;;
72882;SDS011;61017;37.812;-122.286;2023-07-08T05:30:19;10.38;;;2.95;;
72882;SDS011;61017;37.812;-122.286;2023-07-08T05:31:51;9.80;;;3.00;;
72882;SDS011;61017;37.812;-122.286;2023-07-08T05:33:23;8.05;;;3.03;;
72882;SDS011;61017;37.812;-122.286;2023-07-08T05:34:55;9.00;;;2.92;;
72882;SDS011;61017;37.812;-122.286;2023-07-08T05:36:27;8.35;;;2.70;;
72882;SDS011;61017;37.812;-122.286;2023-07-08T05:37:58;8.45;;;3.10;;
72882;SDS011;61017;37.812;-122.286;2023-07-08T05:39:30;9.35;;;2.80;;
72882;SDS011;61017;37.812;-122.286;2023-07-08T05:41:02;10.38;;;3.05;;
72882;SDS011;61017;37.812;-122.286;2023-07-08T05:42:34;9.52;;;2.70;;
72882;SDS011;61017;37.812;-122.286;2023-07-08T05:44:06;10.65;;;3.20;;
72882;SDS011;61017;37.812;-122.286;2023-07-08T05:45:38;10.60;;;3.10;;
72882;SDS011;61017;37.812;-122.286;2023-07-08T05:47:09;8.85;;;2.85;;
72882;SDS011;61017;37.812;-122.286;2023-07-08T05:48:41;7.13;;;2.63;;
72882;SDS011;61017;37.812;-122.286;2023-07-08T05:50:13;9.43;;;2.90;;
72882;SDS011;61017;37.812;-122.286;2023-07-08T05:51:44;9.40;;;2.67;;
72882;SDS011;61017;37.812;-122.286;2023-07-08T05:53:17;12.63;;;3.53;;
72882;SDS011;61017;37.812;-122.286;2023-07-08T05:54:50;6.88;;;2.58;;
72882;SDS011;61017;37.812;-122.286;2023-07-08T05:56:24;6.40;;;2.58;;
72882;SDS011;61017;37.812;-122.286;2023-07-08T05:57:56;7.05;;;2.83;;
72882;SDS011;61017;37.812;-122.286;2023-07-08T05:59:27;8.25;;;3.03;;
72882;SDS011;61017;37.812;-122.286;2023-07-08T06:00:59;11.60;;;2.95;;
72882;SDS011;61017;37.812;-122.286;2023-07-08T06:02:31;11.25;;;2.72;;
72882;SDS011;61017;37.812;-122.286;2023-07-08T06:04:02;7.88;;;2.85;;
72882;SDS011;61017;37.812;-122.286;2023-07-08T06:05:34;9.70;;;2.72;;
72882;SDS011;61017;37.812;-122.286;2023-07-08T06:07:07;8.20;;;2.53;;
72882;SDS011;61017;37.812;-122.286;2023-07-08T06:08:39;10.37;;;2.70;;
72882;SDS011;61017;37.812;-122.286;2023-07-08T06:10:31;10.63;;;2.65;;
72882;SDS011;61017;37.812;-122.286;2023-07-08T06:12:02;12.00;;;2.90;;
72882;SDS011;61017;37.812;-122.286;2023-07-08T06:13:34;6.47;;;2.60;;
72882;SDS011;61017;37.812;-122.286;2023-07-08T06:15:06;9.50;;;2.65;;
72882;SDS011;61017;37.812;-122.286;2023-07-08T06:16:37;8.43;;;2.55;;
72882;SDS011;61017;37.812;-122.286;2023-07-08T06:18:09;7.95;;;2.78;;
72882;SDS011;61017;37.812;-122.286;2023-07-08T06:19:41;7.40;;;2.78;;
72882;SDS011;61017;37.812;-122.286;2023-07-08T06:21:12;9.77;;;2.80;;
72882;SDS011;61017;37.812;-122.286;2023-07-08T06:22:44;9.48;;;2.60;;
72882;SDS011;61017;37.812;-122.286;2023-07-08T06:24:16;9.95;;;3.15;;
72882;SDS011;61017;37.812;-122.286;2023-07-08T06:25:47;9.57;;;3.05;;
72882;SDS011;61017;37.812;-122.286;2023-07-08T06:27:19;8.07;;;2.70;;
72882;SDS011;61017;37.812;-122.286;2023-07-08T06:28:50;10.50;;;2.95;;
72882;SDS011;61017;37.812;-122.286;2023-07-08T06:30:22;8.95;;;2.60;;
72882;SDS011;61017;37.812;-122.286;2023-07-08T06:31:54;12.27;;;3.10;;
72882;SDS011;61017;37.812;-122.286;2023-07-08T06:33:25;9.07;;;2.75;;
72882;SDS011;61017;37.812;-122.286;2023-07-08T06:34:57;8.70;;;2.90;;
72882;SDS011;61017;37.812;-122.286;2023-07-08T06:36:28;7.50;;;3.00;;
72882;SDS011;61017;37.812;-122.286;2023-07-08T06:38:00;7.93;;;2.80;;
72882;SDS011;61017;37.812;-122.286;2023-07-08T06:39:32;10.45;;;3.00;;
72882;SDS011;61017;37.812;-122.286;2023-07-08T06:41:03;11.20;;;3.28;;
72882;SDS011;61017;37.812;-122.286;2023-07-08T06:42:35;10.73;;;3.20;;
72882;SDS011;61017;37.812;-122.286;2023-07-08T06:44:06;10.13;;;2.53;;
72882;SDS011;61017;37.812;-122.286;2023-07-08T06:45:38;10.32;;;3.22;;
72882;SDS011;61017;37.812;-122.286;2023-07-08T06:48:42;13.70;;;3.22;;
72882;SDS011;61017;37.812;-122.286;2023-07-08T06:50:13;11.27;;;3.25;;
72882;SDS011;61017;37.812;-122.286;2023-07-08T06:51:45;10.73;;;3.13;;
72882;SDS011;61017;37.812;-122.286;2023-07-08T06:53:16;11.70;;;3.13;;
72882;SDS011;61017;37.812;-122.286;2023-07-08T06:54:48;10.60;;;3.10;;
72882;SDS011;61017;37.812;-122.286;2023-07-08T06:56:20;13.93;;;3.17;;
72882;SDS011;61017;37.812;-122.286;2023-07-08T06:57:51;11.07;;;3.40;;
72882;SDS011;61017;37.812;-122.286;2023-07-08T06:59:23;11.73;;;3.35;;
72882;SDS011;61017;37.812;-122.286;2023-07-08T07:00:54;13.52;;;3.42;;
72882;SDS011;61017;37.812;-122.286;2023-07-08T07:02:27;14.13;;;3.50;;
72882;SDS011;61017;37.812;-122.286;2023-07-08T07:03:58;13.82;;;3.55;;
72882;SDS011;61017;37.812;-122.286;2023-07-08T07:05:30;10.35;;;3.50;;
72882;SDS011;61017;37.812;-122.286;2023-07-08T07:07:01;12.90;;;3.33;;
72882;SDS011;61017;37.812;-122.286;2023-07-08T07:08:33;12.15;;;3.08;;
72882;SDS011;61017;37.812;-122.286;2023-07-08T07:10:05;12.57;;;3.95;;
72882;SDS011;61017;37.812;-122.286;2023-07-08T07:11:36;10.35;;;3.28;;
72882;SDS011;61017;37.812;-122.286;2023-07-08T07:13:08;12.43;;;3.45;;
72882;SDS011;61017;37.812;-122.286;2023-07-08T07:14:39;10.15;;;3.17;;
72882;SDS011;61017;37.812;-122.286;2023-07-08T07:16:11;15.18;;;3.47;;
72882;SDS011;61017;37.812;-122.286;2023-07-08T07:17:43;13.63;;;3.40;;
72882;SDS011;61017;37.812;-122.286;2023-07-08T07:19:14;14.18;;;3.38;;
72882;SDS011;61017;37.812;-122.286;2023-07-08T07:20:49;14.43;;;3.53;;
72882;SDS011;61017;37.812;-122.286;2023-07-08T07:22:24;10.75;;;3.03;;
72882;SDS011;61017;37.812;-122.286;2023-07-08T07:23:56;11.57;;;3.15;;
72882;SDS011;61017;37.812;-122.286;2023-07-08T07:25:27;12.40;;;3.35;;
72882;SDS011;61017;37.812;-122.286;2023-07-08T07:26:59;13.23;;;3.50;;
72882;SDS011;61017;37.812;-122.286;2023-07-08T07:28:33;13.27;;;3.67;;
72882;SDS011;61017;37.812;-122.286;2023-07-08T07:30:08;10.93;;;3.30;;
72882;SDS011;61017;37.812;-122.286;2023-07-08T07:31:40;10.88;;;3.30;;
72882;SDS011;61017;37.812;-122.286;2023-07-08T07:33:12;11.95;;;3.40;;
72882;SDS011;61017;37.812;-122.286;2023-07-08T07:34:46;14.20;;;3.58;;
72882;SDS011;61017;37.812;-122.286;2023-07-08T07:36:18;11.20;;;3.35;;
72882;SDS011;61017;37.812;-122.286;2023-07-08T07:37:50;12.40;;;3.60;;
72882;SDS011;61017;37.812;-122.286;2023-07-08T07:39:21;13.82;;;3.33;;
72882;SDS011;61017;37.812;-122.286;2023-07-08T07:40:53;10.70;;;3.10;;
72882;SDS011;61017;37.812;-122.286;2023-07-08T07:42:27;10.32;;;3.40;;
72882;SDS011;61017;37.812;-122.286;2023-07-08T07:43:59;10.98;;;3.55;;
72882;SDS011;61017;37.812;-122.286;2023-07-08T07:45:30;13.35;;;3.45;;
72882;SDS011;61017;37.812;-122.286;2023-07-08T07:47:02;13.55;;;3.67;;
72882;SDS011;61017;37.812;-122.286;2023-07-08T07:48:38;9.80;;;3.42;;
72882;SDS011;61017;37.812;-122.286;2023-07-08T07:50:10;15.77;;;3.78;;
72882;SDS011;61017;37.812;-122.286;2023-07-08T07:51:42;13.27;;;3.10;;
72882;SDS011;61017;37.812;-122.286;2023-07-08T07:53:13;10.45;;;3.20;;
72882;SDS011;61017;37.812;-122.286;2023-07-08T07:54:45;13.48;;;3.53;;
72882;SDS011;61017;37.812;-122.286;2023-07-08T07:56:16;9.65;;;3.28;;
72882;SDS011;61017;37.812;-122.286;2023-07-08T07:57:48;12.90;;;3.08;;
72882;SDS011;61017;37.812;-122.286;2023-07-08T07:59:21;13.10;;;3.30;;
72882;SDS011;61017;37.812;-122.286;2023-07-08T08:00:53;12.15;;;3.72;;
72882;SDS011;61017;37.812;-122.286;2023-07-08T08:02:30;12.82;;;3.40;;
72882;SDS011;61017;37.812;-122.286;2023-07-08T08:04:02;11.77;;;3.50;;
72882;SDS011;61017;37.812;-122.286;2023-07-08T08:05:33;12.80;;;3.60;;
72882;SDS011;61017;37.812;-122.286;2023-07-08T08:07:05;10.15;;;2.88;;
72882;SDS011;61017;37.812;-122.286;2023-07-08T08:08:42;13.10;;;3.70;;
72882;SDS011;61017;37.812;-122.286;2023-07-08T08:10:17;13.35;;;3.40;;
72882;SDS011;61017;37.812;-122.286;2023-07-08T08:11:51;11.50;;;3.55;;
72882;SDS011;61017;37.812;-122.286;2023-07-08T08:13:32;12.05;;;3.63;;
72882;SDS011;61017;37.812;-122.286;2023-07-08T08:15:03;11.27;;;3.75;;
72882;SDS011;61017;37.812;-122.286;2023-07-08T08:16:35;13.15;;;3.92;;
72882;SDS011;61017;37.812;-122.286;2023-07-08T08:18:09;14.65;;;3.80;;
72882;SDS011;61017;37.812;-122.286;2023-07-08T08:19:41;13.98;;;3.60;;
72882;SDS011;61017;37.812;-122.286;2023-07-08T08:21:13;13.57;;;3.75;;
72882;SDS011;61017;37.812;-122.286;2023-07-08T08:22:46;15.15;;;4.03;;
72882;SDS011;61017;37.812;-122.286;2023-07-08T08:24:18;10.27;;;3.50;;
72882;SDS011;61017;37.812;-122.286;2023-07-08T08:25:50;11.88;;;3.70;;
72882;SDS011;61017;37.812;-122.286;2023-07-08T08:27:24;12.07;;;3.50;;
72882;SDS011;61017;37.812;-122.286;2023-07-08T08:28:55;12.30;;;3.35;;
72882;SDS011;61017;37.812;-122.286;2023-07-08T08:30:30;10.48;;;3.88;;
72882;SDS011;61017;37.812;-122.286;2023-07-08T08:32:02;12.07;;;3.40;;
72882;SDS011;61017;37.812;-122.286;2023-07-08T08:33:34;12.05;;;3.78;;
72882;SDS011;61017;37.812;-122.286;2023-07-08T08:35:06;11.35;;;3.13;;
72882;SDS011;61017;37.812;-122.286;2023-07-08T08:36:38;9.50;;;3.00;;
72882;SDS011;61017;37.812;-122.286;2023-07-08T08:38:09;12.13;;;3.60;;
72882;SDS011;61017;37.812;-122.286;2023-07-08T08:39:41;13.95;;;3.70;;
72882;SDS011;61017;37.812;-122.286;2023-07-08T08:41:14;12.52;;;3.50;;
72882;SDS011;61017;37.812;-122.286;2023-07-08T08:42:57;9.80;;;3.00;;
72882;SDS011;61017;37.812;-122.286;2023-07-08T08:44:35;10.57;;;3.42;;
72882;SDS011;61017;37.812;-122.286;2023-07-08T08:47:58;13.45;;;3.60;;
72882;SDS011;61017;37.812;-122.286;2023-07-08T08:49:56;12.02;;;3.50;;
72882;SDS011;61017;37.812;-122.286;2023-07-08T08:51:32;13.05;;;3.47;;
72882;SDS011;61017;37.812;-122.286;2023-07-08T08:53:08;10.82;;;3.40;;
72882;SDS011;61017;37.812;-122.286;2023-07-08T08:54:42;12.45;;;3.42;;
72882;SDS011;61017;37.812;-122.286;2023-07-08T08:56:22;10.90;;;3.17;;
72882;SDS011;61017;37.812;-122.286;2023-07-08T08:57:58;10.82;;;3.28;;
72882;SDS011;61017;37.812;-122.286;2023-07-08T09:01:16;12.43;;;3.70;;
72882;SDS011;61017;37.812;-122.286;2023-07-08T09:03:01;12.07;;;3.45;;